Time;durP1;ratioP1;P1;durP2;ratioP2;P2;SDS_P1;SDS_P2;PMS_P1;PMS_P2;Temp;Humidity;BMP_temperature;BMP_pressure;BME280_temperature;BME280_humidity;BME280_pressure;Samples;Min_cycle;Max_cycle;Signal;HPM_P1;HPM_P2
2022/08/25 00:01:35;;;;;;;3.03;1.73;;;25.70;36.50;;;;;;5013467;28;20054;-50
2022/08/25 00:04:06;;;;;;;5.95;1.63;;;25.70;36.50;;;;;;5018541;28;20054;-55
2022/08/25 00:06:33;;;;;;;3.53;1.70;;;25.70;36.60;;;;;;5020487;28;20060;-51
2022/08/25 00:09:01;;;;;;;2.03;1.45;;;25.60;36.60;;;;;;5020512;28;20061;-54
2022/08/25 00:11:31;;;;;;;4.57;1.85;;;25.50;36.80;;;;;;5015480;28;20053;-53
2022/08/25 00:14:00;;;;;;;4.72;2.00;;;25.50;37.00;;;;;;5019951;28;20493;-50
2022/08/25 00:16:30;;;;;;;3.15;1.85;;;25.50;37.00;;;;;;5019384;28;20049;-50
2022/08/25 00:19:00;;;;;;;3.08;1.73;;;25.50;37.10;;;;;;5023202;28;20417;-53
2022/08/25 00:21:29;;;;;;;2.88;1.70;;;25.50;37.70;;;;;;5019447;28;20049;-51
2022/08/25 00:23:57;;;;;;;2.00;1.77;;;25.50;37.30;;;;;;5020871;28;20057;-54
2022/08/25 00:26:25;;;;;;;4.65;1.77;;;25.40;37.30;;;;;;5020080;28;20417;-54
2022/08/25 00:28:53;;;;;;;2.92;2.10;;;25.40;37.30;;;;;;5020668;28;20049;-51
2022/08/25 00:31:22;;;;;;;4.78;2.13;;;25.40;37.00;;;;;;5014427;28;20596;-53
2022/08/25 00:33:52;;;;;;;3.20;1.73;;;25.30;37.20;;;;;;5020800;28;20056;-52
2022/08/25 00:36:20;;;;;;;2.90;1.75;;;25.30;37.10;;;;;;5017676;28;20083;-50
2022/08/25 00:38:49;;;;;;;1.58;1.45;;;25.30;37.10;;;;;;5022428;28;20512;-57
2022/08/25 00:41:19;;;;;;;4.18;1.83;;;25.30;37.10;;;;;;5012620;28;20050;-52
2022/08/25 00:43:51;;;;;;;4.70;1.55;;;25.30;37.20;;;;;;5011230;28;20474;-54
2022/08/25 00:46:21;;;;;;;2.83;1.60;;;25.20;37.20;;;;;;5015208;28;20054;-55
2022/08/25 00:48:55;;;;;;;2.85;1.65;;;25.20;37.10;;;;;;5022106;28;20057;-53
2022/08/25 00:51:30;;;;;;;2.08;1.60;;;25.20;37.10;;;;;;5015427;28;20049;-56
2022/08/25 00:53:58;;;;;;;5.40;1.90;;;25.20;37.10;;;;;;5018701;28;20855;-53
2022/08/25 00:56:27;;;;;;;1.88;1.50;;;25.20;37.10;;;;;;5014903;28;20057;-50
2022/08/25 00:58:54;;;;;;;2.58;1.42;;;25.10;37.10;;;;;;5019805;28;20053;-53
2022/08/25 01:01:21;;;;;;;3.10;1.60;;;25.10;37.20;;;;;;5011379;28;20052;-52
2022/08/25 01:03:48;;;;;;;2.78;1.73;;;25.10;37.30;;;;;;5014120;28;20053;-53
2022/08/25 01:06:17;;;;;;;2.40;1.73;;;25.10;37.50;;;;;;5020427;28;20068;-50
2022/08/25 01:08:44;;;;;;;3.30;1.98;;;25.00;37.60;;;;;;5019751;28;20417;-52
2022/08/25 01:11:12;;;;;;;2.03;1.40;;;25.00;37.60;;;;;;5013390;28;20053;-51
2022/08/25 01:13:41;;;;;;;2.17;1.38;;;25.00;37.70;;;;;;5021796;28;20062;-53
2022/08/25 01:16:09;;;;;;;5.57;1.45;;;25.00;37.80;;;;;;5021387;28;20053;-52
2022/08/25 01:18:44;;;;;;;2.53;1.55;;;25.00;37.90;;;;;;5015939;28;20065;-52
2022/08/25 01:21:13;;;;;;;2.40;1.58;;;25.00;38.00;;;;;;5010323;28;20060;-56
2022/08/25 01:23:41;;;;;;;3.35;1.63;;;25.00;38.10;;;;;;5012503;28;20058;-52
2022/08/25 01:26:11;;;;;;;1.73;1.33;;;24.90;38.10;;;;;;5011386;28;20053;-54
2022/08/25 01:29:19;;;;;;;2.17;1.52;;;24.90;38.00;;;;;;5012787;28;20053;-49
2022/08/25 01:31:28;;;;;;;4.18;1.77;;;24.90;37.90;;;;;;5015018;28;20498;-55
2022/08/25 01:33:57;;;;;;;3.85;1.80;;;24.90;37.90;;;;;;5012152;28;20058;-53
2022/08/25 01:36:27;;;;;;;2.78;1.80;;;24.80;38.00;;;;;;5022449;28;20060;-53
2022/08/25 01:38:55;;;;;;;3.45;1.70;;;24.80;38.00;;;;;;5019018;28;20057;-55
2022/08/25 01:41:30;;;;;;;4.25;1.75;;;24.80;37.90;;;;;;5008098;28;20076;-55
2022/08/25 01:43:58;;;;;;;4.55;1.70;;;24.80;38.00;;;;;;5018948;28;20057;-55
2022/08/25 01:46:25;;;;;;;3.20;1.70;;;24.70;37.90;;;;;;5019991;28;20409;-54
2022/08/25 01:48:53;;;;;;;2.70;1.55;;;24.70;38.00;;;;;;5022837;28;20072;-55
2022/08/25 01:51:27;;;;;;;3.10;2.10;;;24.70;38.20;;;;;;5017011;28;20397;-51
2022/08/25 01:53:55;;;;;;;2.40;1.73;;;24.70;38.30;;;;;;5015968;28;20061;-55
2022/08/25 01:56:22;;;;;;;3.13;1.65;;;24.70;38.30;;;;;;5012168;28;20697;-51
2022/08/25 01:58:49;;;;;;;3.65;1.50;;;24.70;38.30;;;;;;5008534;28;20428;-51
2022/08/25 02:01:20;;;;;;;5.03;1.70;;;24.70;38.40;;;;;;5012449;28;20512;-53
2022/08/25 02:03:49;;;;;;;3.58;1.75;;;24.60;38.50;;;;;;5021997;28;20084;-52
2022/08/25 02:06:19;;;;;;;6.07;1.77;;;24.60;38.60;;;;;;5020818;28;20061;-53
2022/08/25 02:08:51;;;;;;;3.30;1.65;;;24.60;38.70;;;;;;5018083;28;20057;-53
2022/08/25 02:11:19;;;;;;;7.97;1.70;;;24.50;38.80;;;;;;5016983;28;20049;-51
2022/08/25 02:13:46;;;;;;;3.22;1.70;;;24.60;38.80;;;;;;5020305;28;20057;-53
2022/08/25 02:16:19;;;;;;;3.72;1.85;;;24.60;38.80;;;;;;5017581;28;20056;-51
2022/08/25 02:18:46;;;;;;;3.78;1.45;;;24.50;38.90;;;;;;5021464;28;20088;-51
2022/08/25 02:21:14;;;;;;;1.83;1.55;;;24.50;38.90;;;;;;5015774;28;20056;-52
2022/08/25 02:23:41;;;;;;;5.20;2.20;;;24.50;38.90;;;;;;5021154;28;21093;-53
2022/08/25 02:26:11;;;;;;;2.45;1.73;;;24.50;39.00;;;;;;5021285;28;20064;-52
2022/08/25 02:28:38;;;;;;;7.50;1.92;;;24.40;39.10;;;;;;5020463;28;20489;-52
2022/08/25 02:31:06;;;;;;;3.83;1.40;;;24.40;39.00;;;;;;5015443;28;20490;-53
2022/08/25 02:33:33;;;;;;;3.58;1.75;;;24.40;39.20;;;;;;5016438;28;21757;-51
2022/08/25 02:36:01;;;;;;;3.42;1.92;;;24.40;39.20;;;;;;5017520;28;20061;-53
2022/08/25 02:38:29;;;;;;;2.40;1.73;;;24.40;39.20;;;;;;5016743;28;20049;-53
2022/08/25 02:40:57;;;;;;;4.10;1.85;;;24.40;39.30;;;;;;5017058;28;20049;-53
2022/08/25 02:43:27;;;;;;;2.88;2.20;;;24.30;39.30;;;;;;5016344;28;20049;-56
2022/08/25 02:45:55;;;;;;;3.95;1.98;;;24.30;39.30;;;;;;5008779;28;20059;-54
2022/08/25 02:48:23;;;;;;;2.25;1.65;;;24.30;39.40;;;;;;5019742;28;20061;-52
2022/08/25 02:50:52;;;;;;;2.40;1.73;;;24.30;39.40;;;;;;5012563;28;20076;-55
2022/08/25 02:53:19;;;;;;;3.45;1.75;;;24.30;39.50;;;;;;5013379;28;20843;-56
2022/08/25 02:55:47;;;;;;;7.82;2.25;;;24.20;39.50;;;;;;5011824;28;20088;-57
2022/08/25 02:58:14;;;;;;;1.95;1.60;;;24.20;39.60;;;;;;5018963;28;20049;-55
2022/08/25 03:00:43;;;;;;;3.15;1.90;;;24.10;39.50;;;;;;5012626;28;20409;-57
2022/08/25 03:03:10;;;;;;;4.22;2.03;;;24.10;39.60;;;;;;5013343;28;20053;-57
2022/08/25 03:05:38;;;;;;;2.67;1.90;;;24.10;39.70;;;;;;5012964;28;21532;-57
2022/08/25 03:08:06;;;;;;;3.50;2.00;;;24.10;39.70;;;;;;5016951;28;20057;-57
2022/08/25 03:10:34;;;;;;;4.10;1.90;;;24.10;39.80;;;;;;5012472;28;20049;-55
2022/08/25 03:13:01;;;;;;;3.85;1.92;;;24.00;39.90;;;;;;5012940;28;20068;-57
2022/08/25 03:15:28;;;;;;;3.20;1.60;;;24.00;39.90;;;;;;5019467;28;20053;-57
2022/08/25 03:17:57;;;;;;;3.47;2.00;;;24.00;40.00;;;;;;5014987;28;20060;-55
2022/08/25 03:20:26;;;;;;;2.30;1.90;;;23.90;40.10;;;;;;5016894;28;20049;-55
2022/08/25 03:22:53;;;;;;;3.58;2.03;;;23.90;40.10;;;;;;5013562;28;20409;-57
2022/08/25 03:28:07;;;;;;;3.72;2.05;;;23.90;40.20;;;;;;5011130;28;20048;-57
2022/08/25 03:30:34;;;;;;;3.65;2.35;;;23.80;40.20;;;;;;5012673;28;20064;-56
2022/08/25 03:33:03;;;;;;;3.55;1.83;;;23.80;40.30;;;;;;5014533;28;20057;-57
2022/08/25 03:35:30;;;;;;;3.10;1.90;;;23.80;40.40;;;;;;5011279;28;20437;-56
2022/08/25 03:37:59;;;;;;;4.25;2.15;;;23.80;40.50;;;;;;5008817;28;21403;-57
2022/08/25 03:40:26;;;;;;;4.47;2.00;;;23.80;40.60;;;;;;5011095;28;20056;-56
2022/08/25 03:42:55;;;;;;;3.08;2.20;;;23.70;40.70;;;;;;5020146;28;20493;-57
2022/08/25 03:45:23;;;;;;;3.55;2.00;;;23.70;40.70;;;;;;5016318;28;20057;-55
2022/08/25 03:47:51;;;;;;;2.95;2.25;;;23.60;40.70;;;;;;5010053;28;20054;-56
2022/08/25 03:50:22;;;;;;;2.85;2.30;;;23.60;41.30;;;;;;5013337;28;20061;-57
2022/08/25 03:52:52;;;;;;;3.28;2.03;;;23.60;40.90;;;;;;5018799;28;20053;-56
2022/08/25 03:55:21;;;;;;;1.88;1.70;;;23.60;41.00;;;;;;5018620;28;20056;-57
2022/08/25 03:57:48;;;;;;;2.63;2.15;;;23.60;41.00;;;;;;5021911;28;20069;-55
2022/08/25 04:00:16;;;;;;;4.57;2.38;;;23.60;41.20;;;;;;5014054;28;20409;-56
2022/08/25 04:02:43;;;;;;;5.28;2.65;;;23.50;41.10;;;;;;5025563;28;20049;-57
2022/08/25 04:05:11;;;;;;;3.58;1.92;;;23.50;41.20;;;;;;5017084;28;20057;-57
2022/08/25 04:07:40;;;;;;;4.50;2.40;;;23.50;41.30;;;;;;5024301;28;20057;-57
2022/08/25 04:10:11;;;;;;;6.75;3.15;;;23.50;41.40;;;;;;5020986;28;20054;-57
2022/08/25 04:12:39;;;;;;;6.57;3.88;;;23.50;41.40;;;;;;5022865;28;20045;-57
2022/08/25 04:15:08;;;;;;;7.32;3.70;;;23.40;41.40;;;;;;5017934;28;20054;-55
2022/08/25 04:17:38;;;;;;;4.00;2.58;;;23.50;41.60;;;;;;5009832;28;20512;-57
2022/08/25 04:20:07;;;;;;;3.47;2.47;;;23.50;41.70;;;;;;5016370;28;20054;-57
2022/08/25 04:22:35;;;;;;;3.30;2.33;;;23.40;41.60;;;;;;5017773;28;20061;-56
2022/08/25 04:25:04;;;;;;;5.38;2.17;;;23.40;41.80;;;;;;5019636;28;20046;-57
2022/08/25 04:27:31;;;;;;;4.70;2.22;;;23.40;41.90;;;;;;5022877;28;20057;-56
2022/08/25 04:29:59;;;;;;;2.90;2.05;;;23.40;42.00;;;;;;5019159;28;20068;-56
2022/08/25 04:32:26;;;;;;;3.08;2.35;;;23.40;42.00;;;;;;5015818;28;20073;-57
2022/08/25 04:34:53;;;;;;;8.63;4.25;;;23.40;42.10;;;;;;5018963;28;20531;-57
2022/08/25 04:37:21;;;;;;;9.60;4.97;;;23.30;42.10;;;;;;5011685;28;20405;-57
2022/08/25 04:39:48;;;;;;;6.85;4.15;;;23.30;42.20;;;;;;5014260;28;20057;-56
2022/08/25 04:42:16;;;;;;;8.45;3.53;;;23.30;42.60;;;;;;5020749;28;20409;-56
2022/08/25 04:44:44;;;;;;;4.53;3.10;;;23.30;42.70;;;;;;5020715;28;20088;-56
2022/08/25 04:47:11;;;;;;;3.45;2.55;;;23.30;42.70;;;;;;5016481;28;20060;-57
2022/08/25 04:49:38;;;;;;;3.88;2.70;;;23.30;42.80;;;;;;5016148;28;20054;-57
2022/08/25 04:52:05;;;;;;;4.90;2.92;;;23.20;42.80;;;;;;5018998;28;20428;-57
2022/08/25 04:54:33;;;;;;;3.72;2.80;;;23.20;42.80;;;;;;5014358;28;20058;-56
2022/08/25 04:57:00;;;;;;;6.53;2.88;;;23.20;42.90;;;;;;5011008;28;20060;-57
2022/08/25 04:59:28;;;;;;;3.70;2.97;;;23.20;42.90;;;;;;5015886;28;20046;-58
2022/08/25 05:01:56;;;;;;;3.70;2.53;;;23.20;43.10;;;;;;5005562;28;20077;-57
2022/08/25 05:04:23;;;;;;;5.05;2.75;;;23.20;43.00;;;;;;5011366;28;20080;-56
2022/08/25 05:06:52;;;;;;;3.97;2.70;;;23.20;43.00;;;;;;5010663;28;20500;-57
2022/08/25 05:09:20;;;;;;;5.03;2.47;;;23.20;43.30;;;;;;5016651;28;20494;-57
2022/08/25 05:11:47;;;;;;;3.88;2.83;;;23.20;43.20;;;;;;5014892;28;20060;-57
2022/08/25 05:14:17;;;;;;;5.90;3.10;;;23.20;43.30;;;;;;5018312;28;20050;-57
2022/08/25 05:16:45;;;;;;;3.53;2.70;;;23.20;43.40;;;;;;5015517;28;20049;-57
2022/08/25 05:19:12;;;;;;;3.38;2.95;;;23.20;43.40;;;;;;5018565;28;20057;-57
2022/08/25 05:21:40;;;;;;;8.23;3.33;;;23.20;43.50;;;;;;5013788;28;20050;-57
2022/08/25 05:24:08;;;;;;;4.38;3.10;;;23.20;43.60;;;;;;5017230;28;20053;-57
2022/08/25 05:26:37;;;;;;;3.53;2.72;;;23.30;43.60;;;;;;5016490;28;20057;-57
2022/08/25 05:29:05;;;;;;;5.03;2.75;;;23.30;43.60;;;;;;5018904;28;20096;-55
2022/08/25 05:31:34;;;;;;;3.75;3.03;;;23.30;43.60;;;;;;5012308;28;20054;-57
2022/08/25 05:34:05;;;;;;;5.00;3.08;;;23.30;43.60;;;;;;5009910;28;20049;-57
2022/08/25 05:36:33;;;;;;;11.65;3.50;;;23.30;43.90;;;;;;5012978;28;20060;-56
2022/08/25 05:39:00;;;;;;;5.32;2.95;;;23.30;43.80;;;;;;5012418;28;20053;-57
2022/08/25 05:41:29;;;;;;;6.10;3.20;;;23.40;43.80;;;;;;5013407;28;20053;-57
2022/08/25 05:43:56;;;;;;;4.18;3.00;;;23.40;44.10;;;;;;5012284;28;20076;-58
2022/08/25 05:46:24;;;;;;;26.52;3.90;;;23.40;43.90;;;;;;5016555;28;20049;-55
2022/08/25 05:48:53;;;;;;;5.63;3.03;;;23.40;44.00;;;;;;5016301;28;20073;-57
2022/08/25 05:51:22;;;;;;;3.22;2.70;;;23.50;44.10;;;;;;5011935;28;20063;-57
2022/08/25 05:53:51;;;;;;;4.63;3.28;;;23.50;44.20;;;;;;5021705;28;20416;-57
2022/08/25 05:56:19;;;;;;;4.72;3.20;;;23.60;44.20;;;;;;5013754;28;20060;-56
2022/08/25 05:58:46;;;;;;;3.67;2.75;;;23.60;44.20;;;;;;5015145;28;20061;-57
2022/08/25 06:04:10;;;;;;;3.78;2.95;;;23.70;44.60;;;;;;5021494;28;20056;-57
2022/08/25 06:06:39;;;;;;;4.72;3.22;;;23.80;44.40;;;;;;5014038;28;20587;-56
2022/08/25 06:09:07;;;;;;;5.03;3.40;;;23.80;44.90;;;;;;5016447;28;20064;-57
2022/08/25 06:11:36;;;;;;;4.43;3.20;;;23.90;45.10;;;;;;5013565;28;20081;-58
2022/08/25 06:14:04;;;;;;;5.25;3.38;;;23.90;45.00;;;;;;5021078;28;20508;-56
2022/08/25 06:16:31;;;;;;;6.63;3.90;;;23.90;44.90;;;;;;5019343;28;20060;-56
2022/08/25 06:19:00;;;;;;;7.15;3.83;;;24.00;45.00;;;;;;5017955;28;20057;-58
2022/08/25 06:21:27;;;;;;;4.55;3.40;;;24.00;45.20;;;;;;5015126;28;20057;-56
2022/08/25 06:23:56;;;;;;;4.75;3.60;;;24.00;45.30;;;;;;5022349;28;20053;-57
2022/08/25 06:26:24;;;;;;;5.47;3.88;;;24.10;45.30;;;;;;5020834;28;20143;-57
2022/08/25 06:28:52;;;;;;;4.28;3.38;;;24.10;45.10;;;;;;5004990;28;20490;-57
2022/08/25 06:31:21;;;;;;;4.55;3.60;;;24.20;45.00;;;;;;5007889;28;20053;-57
2022/08/25 06:33:48;;;;;;;6.57;3.80;;;24.20;45.30;;;;;;5015014;28;20057;-58
2022/08/25 06:36:16;;;;;;;5.38;4.10;;;24.20;45.20;;;;;;5016004;28;20076;-58
2022/08/25 06:38:43;;;;;;;6.88;3.67;;;24.30;45.60;;;;;;5017781;28;20515;-56
2022/08/25 06:41:12;;;;;;;6.30;3.75;;;24.30;45.50;;;;;;5010713;28;20057;-57
2022/08/25 06:43:40;;;;;;;6.32;4.30;;;24.40;45.40;;;;;;5016342;28;20046;-58
2022/08/25 06:46:09;;;;;;;8.57;3.90;;;24.40;45.00;;;;;;5013817;28;20060;-56
2022/08/25 06:48:36;;;;;;;5.65;4.05;;;24.50;45.10;;;;;;5014303;28;20053;-57
2022/08/25 06:51:06;;;;;;;5.47;3.60;;;24.50;45.20;;;;;;5017775;28;20049;-59
2022/08/25 06:53:34;;;;;;;5.13;3.78;;;24.50;45.20;;;;;;5021352;28;20052;-57
2022/08/25 06:56:01;;;;;;;6.07;3.85;;;24.50;45.00;;;;;;5017865;28;20065;-57
2022/08/25 06:58:30;;;;;;;5.82;4.15;;;24.60;45.40;;;;;;5018074;28;20061;-57
2022/08/25 07:01:06;;;;;;;6.38;4.32;;;24.60;45.40;;;;;;5011547;28;20522;-57
2022/08/25 07:03:33;;;;;;;7.88;4.22;;;24.70;45.30;;;;;;5018603;28;20069;-56
2022/08/25 07:06:00;;;;;;;4.82;4.03;;;24.70;45.20;;;;;;5017648;28;20061;-57
2022/08/25 07:08:28;;;;;;;5.80;4.10;;;24.80;45.20;;;;;;5010914;28;20057;-58
2022/08/25 07:10:55;;;;;;;9.07;4.85;;;24.80;45.40;;;;;;5014471;28;20057;-55
2022/08/25 07:13:22;;;;;;;10.02;4.63;;;24.90;45.30;;;;;;5020030;28;20049;-55
2022/08/25 07:15:55;;;;;;;8.32;5.18;;;24.90;45.00;;;;;;5017805;28;20057;-58
2022/08/25 07:18:22;;;;;;;5.70;4.20;;;25.00;45.30;;;;;;5016699;28;20049;-57
2022/08/25 07:20:50;;;;;;;6.90;4.90;;;25.00;45.00;;;;;;5011738;28;20061;-57
2022/08/25 07:23:18;;;;;;;5.88;4.15;;;25.10;45.10;;;;;;5013585;28;20057;-57
2022/08/25 07:25:46;;;;;;;9.07;4.55;;;25.20;45.20;;;;;;5012325;28;20405;-57
2022/08/25 07:28:14;;;;;;;5.75;4.30;;;25.20;45.40;;;;;;5020641;28;20072;-56
2022/08/25 07:30:42;;;;;;;8.82;4.50;;;25.30;45.30;;;;;;5015329;28;20053;-56
2022/08/25 07:33:10;;;;;;;8.57;4.63;;;25.30;45.30;;;;;;5016948;28;20049;-56
2022/08/25 07:35:37;;;;;;;12.48;5.18;;;25.40;45.40;;;;;;5017323;28;20412;-57
2022/08/25 07:38:06;;;;;;;7.07;4.60;;;25.50;45.50;;;;;;5020326;28;20045;-56
2022/08/25 07:40:35;;;;;;;6.35;4.85;;;25.50;45.20;;;;;;5015821;28;20060;-56
2022/08/25 07:43:06;;;;;;;6.88;4.70;;;25.60;45.30;;;;;;5017003;28;20533;-57
2022/08/25 07:45:36;;;;;;;5.93;4.00;;;25.70;45.20;;;;;;5017766;28;20053;-57
2022/08/25 07:48:06;;;;;;;6.80;4.55;;;25.70;45.10;;;;;;5020616;28;20057;-58
2022/08/25 07:50:37;;;;;;;8.23;4.05;;;25.80;45.10;;;;;;5015468;28;20509;-56
2022/08/25 07:53:05;;;;;;;6.63;4.80;;;25.80;45.00;;;;;;5019580;28;20053;-55
2022/08/25 07:55:35;;;;;;;7.53;5.35;;;25.90;45.00;;;;;;5017323;28;20054;-55
2022/08/25 07:58:03;;;;;;;6.50;5.22;;;26.00;45.10;;;;;;5014344;28;20065;-56
2022/08/25 08:00:32;;;;;;;7.13;4.40;;;26.10;45.20;;;;;;5001683;28;20068;-58
2022/08/25 08:03:00;;;;;;;5.20;4.30;;;26.20;45.00;;;;;;5019668;28;20070;-57
2022/08/25 08:05:28;;;;;;;13.38;5.53;;;26.20;44.70;;;;;;5018359;28;20057;-56
2022/08/25 08:07:57;;;;;;;10.50;4.78;;;26.30;44.60;;;;;;5015664;28;20053;-56
2022/08/25 08:10:24;;;;;;;6.72;4.82;;;26.40;44.70;;;;;;5009187;28;20056;-57
2022/08/25 08:12:52;;;;;;;12.95;5.35;;;26.40;44.60;;;;;;5015398;28;20053;-57
2022/08/25 08:15:19;;;;;;;9.52;4.75;;;26.50;44.60;;;;;;5017413;28;20069;-56
2022/08/25 08:17:47;;;;;;;17.80;5.53;;;26.50;44.50;;;;;;5014168;28;20053;-56
2022/08/25 08:20:14;;;;;;;16.05;5.20;;;26.60;44.50;;;;;;5010497;28;20050;-57
2022/08/25 08:22:44;;;;;;;9.45;4.82;;;26.70;44.40;;;;;;5017983;28;20049;-56
2022/08/25 08:25:12;;;;;;;8.27;5.18;;;26.70;44.40;;;;;;5019338;28;20049;-57
2022/08/25 08:27:41;;;;;;;18.02;5.47;;;26.80;44.40;;;;;;5015823;28;20060;-55
2022/08/25 08:30:10;;;;;;;17.25;5.57;;;26.90;44.30;;;;;;5012962;28;20057;-57
2022/08/25 08:32:38;;;;;;;12.20;5.07;;;27.00;44.40;;;;;;5018894;28;20061;-57
2022/08/25 08:35:06;;;;;;;6.18;4.88;;;27.00;44.20;;;;;;5020663;28;20508;-56
2022/08/25 08:37:36;;;;;;;6.40;4.13;;;27.10;44.10;;;;;;5020776;28;20423;-57
2022/08/25 08:40:05;;;;;;;18.35;5.45;;;27.10;43.90;;;;;;5019421;28;20053;-57
2022/08/25 08:42:56;;;;;;;6.63;4.30;;;27.20;43.80;;;;;;5015989;28;20049;-57
2022/08/25 08:45:32;;;;;;;6.88;4.78;;;27.30;43.60;;;;;;5015066;28;20076;-59
2022/08/25 08:48:15;;;;;;;5.18;4.25;;;27.40;43.50;;;;;;5020257;28;20056;-58
2022/08/25 08:50:56;;;;;;;5.75;3.88;;;27.40;43.50;;;;;;5020663;28;20053;-57
2022/08/25 08:53:27;;;;;;;5.57;3.78;;;27.40;43.30;;;;;;5019437;28;20061;-56
2022/08/25 08:55:58;;;;;;;7.80;4.70;;;27.50;43.30;;;;;;4998640;28;21723;-57
2022/08/25 08:58:34;;;;;;;5.90;4.53;;;27.50;43.30;;;;;;5002083;28;20066;-56
2022/08/25 09:01:02;;;;;;;5.05;4.03;;;27.60;43.00;;;;;;4993832;28;20061;-58
2022/08/25 09:03:35;;;;;;;6.20;4.50;;;27.70;43.00;;;;;;4995374;28;20519;-58
2022/08/25 09:06:07;;;;;;;6.75;4.60;;;27.70;43.00;;;;;;5009332;28;20049;-57
2022/08/25 09:08:36;;;;;;;5.03;4.53;;;27.80;42.80;;;;;;5005853;28;20053;-56
2022/08/25 09:11:12;;;;;;;6.45;4.72;;;27.90;42.60;;;;;;5012900;28;20061;-57
2022/08/25 09:13:54;;;;;;;6.07;4.60;;;27.90;42.50;;;;;;5017092;28;20049;-58
2022/08/25 09:19:38;;;;;;;6.22;4.75;;;28.00;42.10;;;;;;4977826;28;20105;-57
2022/08/25 09:22:14;;;;;;;13.73;5.05;;;28.10;42.10;;;;;;4998959;28;20057;-58
2022/08/25 09:24:50;;;;;;;8.10;4.78;;;28.10;41.80;;;;;;5004055;28;20049;-58
2022/08/25 09:27:25;;;;;;;6.10;4.43;;;28.20;41.60;;;;;;4998922;28;20053;-58
2022/08/25 09:30:01;;;;;;;4.90;4.15;;;28.20;41.60;;;;;;5010669;28;21465;-57
2022/08/25 09:32:30;;;;;;;6.10;4.22;;;28.30;41.30;;;;;;4993609;28;20057;-58
2022/08/25 09:34:58;;;;;;;14.50;5.05;;;28.30;41.10;;;;;;5016447;28;20060;-58
2022/08/25 09:37:27;;;;;;;8.05;4.45;;;28.30;41.00;;;;;;5013600;28;20076;-58
2022/08/25 09:39:54;;;;;;;5.22;4.15;;;28.40;40.90;;;;;;5003045;28;20058;-58
2022/08/25 09:42:21;;;;;;;5.47;4.20;;;28.40;40.80;;;;;;5012008;28;20053;-58
2022/08/25 09:44:48;;;;;;;8.88;3.92;;;28.50;40.80;;;;;;5019591;28;20124;-55
2022/08/25 09:47:23;;;;;;;5.07;3.70;;;28.50;40.50;;;;;;5005198;28;20065;-57
2022/08/25 09:49:59;;;;;;;6.95;3.90;;;28.50;41.30;;;;;;5012660;28;20053;-58
2022/08/25 09:52:32;;;;;;;8.70;4.00;;;28.60;40.90;;;;;;5008025;28;20054;-59
2022/08/25 09:55:01;;;;;;;7.70;4.22;;;28.60;40.40;;;;;;5009514;28;20049;-57
2022/08/25 09:57:32;;;;;;;6.30;4.68;;;28.70;40.30;;;;;;5005757;28;20057;-56
2022/08/25 10:00:11;;;;;;;5.18;3.78;;;28.70;40.30;;;;;;5014545;28;20061;-53
2022/08/25 10:02:41;;;;;;;6.05;4.10;;;28.70;40.10;;;;;;5012409;28;20061;-58
2022/08/25 10:05:20;;;;;;;5.50;4.10;;;28.80;40.20;;;;;;5007255;28;20415;-58
2022/08/25 10:07:52;;;;;;;4.90;3.38;;;28.80;40.10;;;;;;5006523;28;21416;-57
2022/08/25 10:10:29;;;;;;;8.45;4.18;;;28.90;40.10;;;;;;5010970;28;20046;-57
2022/08/25 10:12:59;;;;;;;5.40;4.13;;;28.90;39.90;;;;;;5004559;28;20116;-57
2022/08/25 10:15:30;;;;;;;5.63;3.97;;;28.90;40.00;;;;;;5009605;28;20050;-57
2022/08/25 10:18:20;;;;;;;4.78;3.72;;;29.00;39.90;;;;;;5015644;28;20489;-58
2022/08/25 10:21:06;;;;;;;7.53;3.90;;;29.10;39.60;;;;;;5014025;28;20049;-57
2022/08/25 10:23:36;;;;;;;5.70;4.30;;;29.20;39.20;;;;;;5017283;28;20053;-58
2022/08/25 10:26:10;;;;;;;5.55;4.10;;;29.20;39.00;;;;;;5018130;28;20405;-60
2022/08/25 10:28:47;;;;;;;4.75;3.88;;;29.30;39.20;;;;;;5006983;28;20485;-58
2022/08/25 10:31:23;;;;;;;5.15;4.13;;;29.30;38.90;;;;;;5016407;28;20398;-57
2022/08/25 10:34:04;;;;;;;5.00;4.00;;;29.40;38.90;;;;;;5014713;28;20053;-57
2022/08/25 10:36:40;;;;;;;5.47;3.53;;;29.40;38.60;;;;;;5016556;28;20053;-58
2022/08/25 10:39:17;;;;;;;8.68;4.30;;;29.40;38.60;;;;;;5017067;28;20057;-58
2022/08/25 10:41:54;;;;;;;6.97;3.97;;;29.50;37.60;;;;;;5015571;28;20045;-58
2022/08/25 10:47:43;;;;;;;5.47;3.55;;;29.50;37.80;;;;;;5024399;28;20996;-58
2022/08/25 10:50:18;;;;;;;5.13;3.67;;;29.60;37.90;;;;;;5006594;28;20065;-56
2022/08/25 10:53:07;;;;;;;5.45;3.70;;;29.60;37.90;;;;;;5012898;28;20053;-58
2022/08/25 10:55:43;;;;;;;5.05;3.30;;;29.60;37.60;;;;;;5018997;28;20049;-57
2022/08/25 10:58:23;;;;;;;4.65;3.67;;;29.70;37.70;;;;;;5016685;28;20064;-57
2022/08/25 11:00:59;;;;;;;4.05;3.38;;;29.70;37.40;;;;;;5010533;28;20068;-57
2022/08/25 11:03:44;;;;;;;4.32;3.08;;;29.70;36.70;;;;;;5018697;28;20931;-59
2022/08/25 11:06:18;;;;;;;4.55;3.50;;;29.80;35.90;;;;;;5011447;28;20060;-58
2022/08/25 11:08:49;;;;;;;3.47;3.15;;;29.80;36.30;;;;;;5015219;28;20068;-58
2022/08/25 11:11:25;;;;;;;6.90;3.20;;;29.90;36.30;;;;;;5010405;28;20489;-58
2022/08/25 11:13:58;;;;;;;3.95;3.10;;;29.90;36.00;;;;;;5013151;28;20049;-58
2022/08/25 11:16:35;;;;;;;3.58;2.70;;;29.90;36.10;;;;;;5017866;28;20049;-58
2022/08/25 11:19:09;;;;;;;4.07;3.33;;;29.90;35.80;;;;;;5008905;28;20049;-58
2022/08/25 11:21:47;;;;;;;5.03;3.33;;;29.90;35.80;;;;;;5002766;28;20405;-57
2022/08/25 11:24:29;;;;;;;4.07;3.30;;;30.00;36.00;;;;;;5017834;28;20049;-55
2022/08/25 11:26:57;;;;;;;4.93;3.45;;;30.10;36.20;;;;;;5019282;28;20053;-57
2022/08/25 11:29:31;;;;;;;4.15;3.60;;;30.10;36.10;;;;;;5016208;28;20045;-58
2022/08/25 11:31:59;;;;;;;;;;;30.20;35.10;;;;;;5008337;28;20076;-58
2022/08/25 11:34:31;;;;;;;3.83;3.42;;;30.20;35.60;;;;;;5017799;28;19944;-58
2022/08/25 11:37:06;;;;;;;6.25;3.25;;;30.30;35.20;;;;;;5007480;28;20513;-59
2022/08/25 11:39:51;;;;;;;6.97;3.33;;;30.30;35.00;;;;;;5005919;28;20050;-57
2022/08/25 11:42:28;;;;;;;3.30;3.00;;;30.30;34.90;;;;;;5007774;28;20049;-58
2022/08/25 11:45:06;;;;;;;3.70;3.05;;;30.40;34.70;;;;;;4995022;28;20060;-57
2022/08/25 11:47:54;;;;;;;5.30;3.03;;;30.40;34.70;;;;;;5001087;28;20053;-58
2022/08/25 11:50:30;;;;;;;4.43;3.00;;;30.40;34.00;;;;;;5003990;28;20386;-58
2022/08/25 11:53:03;;;;;;;3.60;2.58;;;30.50;33.90;;;;;;5019206;28;20065;-58
2022/08/25 11:55:48;;;;;;;6.40;2.90;;;30.50;33.80;;;;;;5011521;28;20050;-58
2022/08/25 11:58:32;;;;;;;3.00;2.35;;;30.50;32.60;;;;;;5003936;28;20045;-57
2022/08/25 12:01:00;;;;;;;;;;;30.50;33.10;;;;;;5011030;28;20049;-58
2022/08/25 12:03:45;;;;;;;3.17;2.65;;;30.60;33.90;;;;;;5017388;28;19921;-59
2022/08/25 12:06:29;;;;;;;2.78;2.50;;;30.70;33.30;;;;;;5009982;28;20057;-58
2022/08/25 12:09:18;;;;;;;5.28;3.03;;;30.70;32.90;;;;;;5007372;28;20609;-57
2022/08/25 12:11:53;;;;;;;3.47;2.63;;;30.70;32.20;;;;;;5012049;28;20057;-59
2022/08/25 12:14:45;;;;;;;4.38;2.80;;;30.80;32.80;;;;;;5021975;28;20405;-58
2022/08/25 12:17:22;;;;;;;3.17;2.58;;;30.80;32.70;;;;;;5016005;28;20053;-58
2022/08/25 12:19:57;;;;;;;3.03;2.72;;;30.90;32.40;;;;;;5020244;28;20405;-58
2022/08/25 12:22:54;;;;;;;3.30;3.00;;;30.90;32.70;;;;;;5024368;28;20417;-57
2022/08/25 12:25:37;;;;;;;3.10;2.80;;;30.90;32.70;;;;;;5024615;28;20057;-59
2022/08/25 12:28:14;;;;;;;4.72;2.70;;;30.90;32.70;;;;;;5017899;28;20065;-59
2022/08/25 12:30:46;;;;;;;2.90;2.50;;;31.00;32.60;;;;;;5007077;28;20058;-58
2022/08/25 12:33:25;;;;;;;4.28;2.92;;;31.00;32.50;;;;;;5016516;28;20068;-58
2022/08/25 12:35:57;;;;;;;3.15;2.58;;;31.00;31.70;;;;;;5023977;28;20054;-58
2022/08/25 12:38:31;;;;;;;4.15;2.58;;;31.00;31.70;;;;;;5023473;28;20452;-58
2022/08/25 12:41:06;;;;;;;5.72;2.53;;;31.00;31.30;;;;;;5019214;28;20421;-58
2022/08/25 12:43:36;;;;;;;2.55;2.20;;;31.10;31.80;;;;;;5021253;28;20053;-58
2022/08/25 12:46:38;;;;;;;2.65;2.30;;;31.10;31.50;;;;;;5019404;28;20064;-58
2022/08/25 12:49:28;;;;;;;2.47;2.25;;;31.10;31.00;;;;;;5021921;28;20065;-58
2022/08/25 12:51:58;;;;;;;4.78;2.00;;;31.10;31.00;;;;;;4999059;28;20077;-58
2022/08/25 12:54:39;;;;;;;5.32;2.45;;;31.20;30.20;;;;;;4993575;28;20527;-57
2022/08/25 12:57:36;;;;;;;4.28;2.30;;;31.20;30.10;;;;;;5010353;28;20103;-56
2022/08/25 13:00:15;;;;;;;4.05;2.30;;;31.20;30.80;;;;;;5009541;28;20064;-58
2022/08/25 13:03:04;;;;;;;3.15;2.45;;;31.20;30.40;;;;;;5007428;28;21042;-59
2022/08/25 13:05:48;;;;;;;7.80;2.53;;;31.30;30.50;;;;;;5015285;28;20509;-57
2022/08/25 13:08:38;;;;;;;4.10;2.63;;;31.30;30.90;;;;;;5011187;28;20054;-59
2022/08/25 13:11:11;;;;;;;5.38;2.58;;;31.30;30.50;;;;;;4979984;28;20068;-57
2022/08/25 13:13:47;;;;;;;3.60;2.47;;;31.40;30.40;;;;;;5008303;28;20053;-60
2022/08/25 13:16:17;;;;;;;3.22;2.25;;;31.40;30.20;;;;;;5005334;28;20069;-58
2022/08/25 13:18:44;;;;;;;5.22;2.67;;;31.40;30.40;;;;;;5012388;28;20636;-58
2022/08/25 13:21:16;;;;;;;4.35;2.28;;;31.40;30.40;;;;;;5017511;28;20053;-57